Flight Track Log - Related Links

Times and Time Zones

All times are in EDT time to prevent confusion due to time zone crossing. See the QXE2371 flight status page for this flight to view local times or setup timezone preferences in your user account.


Time Position Orientation Groundspeed Altitude Reporting Facility
EDT Latitude Longitude Course Direction KTS MPH feet Rate Location/Type
Fri 08:17:00 AM 47.6619 -118.2497 276° West  Level FlightAware Approximate
Fri 08:18:00 AM 47.6667 -118.3695 270° West  Level FlightAware Approximate
Fri 08:19:00 AM 47.6731 -118.4892 276° West  Level FlightAware Approximate
Fri 08:20:00 AM 47.6816 -118.6087 276° West  Level FlightAware Approximate
Fri 08:21:00 AM 47.6833 -118.7288 270° West  Level FlightAware Approximate
Fri 08:22:00 AM 47.6881 -118.8487 274° West  Level FlightAware Approximate
Fri 08:23:00 AM 47.6938 -118.9687 274° West  Level FlightAware Approximate
Fri 08:24:00 AM 47.6993 -119.0886 274° West  Level FlightAware Approximate
Fri 08:25:00 AM 47.7047 -119.2086 274° West  Level FlightAware Approximate
Fri 08:26:00 AM 47.7100 -119.3286 274° West  Level FlightAware Approximate
Fri 08:27:00 AM 47.7152 -119.4487 274° West  Level FlightAware Approximate
Fri 08:28:00 AM 47.7234 -119.5683 277° West  Level FlightAware Approximate
Fri 08:29:00 AM 47.7328 -119.6878 277° West  Level FlightAware Approximate
Fri 08:30:00 AM 47.7421 -119.8074 277° West  Level FlightAware Approximate
Fri 08:31:00 AM 47.7512 -119.9270 277° West  Level FlightAware Approximate
Fri 08:32:00 AM 47.7602 -120.0466 276° West  Level FlightAware Approximate
Fri 08:33:00 AM 47.7766 -120.1630 296° West  Level FlightAware Approximate
Fri 08:34:00 AM 47.7890 -120.2807 275° West  Level FlightAware Approximate
Fri 08:35:00 AM 47.7958 -120.4008 275° West  Level FlightAware Approximate
Fri 08:36:00 AM 47.8025 -120.5209 275° West  Level FlightAware Approximate
Fri 08:37:00 AM 47.8090 -120.6410 275° West  Level FlightAware Approximate
Fri 08:38:00 AM 47.8155 -120.7611 275° West  Level FlightAware Approximate
Fri 08:39:00 AM 47.8220 -120.8809 279° West  Level FlightAware Approximate
Fri 08:40:00 AM 47.8333 -121.0000 270° West  Level FlightAware Approximate
Fri 08:41:00 AM 47.8420 -121.1194 281° West  Level FlightAware Approximate
Fri 08:42:00 AM 47.8540 -121.2386 276° West  Level FlightAware Approximate
Fri 08:43:00 AM 47.8626 -121.3585 276° West  Level FlightAware Approximate
Fri 08:44:00 AM 47.8708 -121.4785 276° West  Level FlightAware Approximate
Fri 08:45:00 AM 47.8788 -121.5986 276° West  Level FlightAware Approximate
Fri 08:46:00 AM 47.8728 -121.7106 214° Southwest  Level FlightAware Approximate
Fri 08:47:00 AM 47.8078 -121.7815 228° Southwest  Level FlightAware Approximate
Fri 08:48:00 AM 47.7531 -121.8703 225° Southwest  Level FlightAware Approximate
Fri 08:49:00 AM 47.6940 -121.9525 222° Southwest  Level FlightAware Approximate
Fri 08:50:00 AM 47.6338 -122.0327 222° Southwest  Level FlightAware Approximate
Fri 08:51:00 AM 47.5668 -122.0999 214° Southwest  Level FlightAware Approximate
Fri 08:52:00 AM 47.5168 -122.1776 228° Southwest  Level FlightAware Approximate
Fri 08:53:00 AM 47.4607 -122.2636 222° Southwest  Level FlightAware Approximate
Fri 08:54:00 AM 47.4333 -122.3000 222° Southwest  Level FlightAware Approximate
Fri 08:55:00 AM 47.4499 -122.3118 222° Southwest  Level Estimated
Fri 08:56:00 AM 47.4499 -122.3118 222° Southwest  Level Estimated
Fri 08:57:00 AM 47.4499 -122.3118 222° Southwest  Level Estimated
Fri 08:58:00 AM 47.4499 -122.3118 222° Southwest  Level Estimated
Fri 08:59:00 AM 47.4499 -122.3118 222° Southwest  Level Estimated
Fri 09:00:00 AM 47.4499 -122.3118 222° Southwest  Level Estimated
Fri 09:01:00 AM 47.4499 -122.3118 222° Southwest  Level Estimated
Fri 09:02:00 AM 47.4499 -122.3118 222° Southwest  Level Estimated
Fri 09:03:00 AM 47.4499 -122.3118 222° Southwest  Level Estimated
Fri 09:04:00 AM 47.4499 -122.3118 222° Southwest  Level Estimated
Fri 09:05:00 AM 47.4499 -122.3118 222° Southwest  Level Estimated
Fri 09:06:00 AM 47.4499 -122.3118 222° Southwest  Level Estimated
Fri 09:07:00 AM 47.4499 -122.3118 222° Southwest  Level Estimated
Fri 09:08:00 AM 47.4499 -122.3118 222° Southwest  Level Estimated
Fri 09:09:00 AM 47.4499 -122.3118 222° Southwest  Level Estimated

Login

Don't have an account? Register now (free) for customized features, flight alerts, and more!